sensor_id;sensor_type;location;lat;lon;timestamp;temperature;humidity
37268;DHT22;23154;52.542;13.362;2023-04-01T00:00:30;9.10;99.90
37268;DHT22;23154;52.542;13.362;2023-04-01T00:02:56;9.10;99.90
37268;DHT22;23154;52.542;13.362;2023-04-01T00:05:22;9.10;99.90
37268;DHT22;23154;52.542;13.362;2023-04-01T00:07:50;9.10;99.90
37268;DHT22;23154;52.542;13.362;2023-04-01T00:10:16;9.10;99.90
37268;DHT22;23154;52.542;13.362;2023-04-01T00:12:42;9.10;99.90
37268;DHT22;23154;52.542;13.362;2023-04-01T00:15:09;9.10;99.90
37268;DHT22;23154;52.542;13.362;2023-04-01T00:17:35;9.10;99.90
37268;DHT22;23154;52.542;13.362;2023-04-01T00:20:02;9.10;99.90
37268;DHT22;23154;52.542;13.362;2023-04-01T00:22:28;9.10;99.90
37268;DHT22;23154;52.542;13.362;2023-04-01T00:24:54;9.10;99.90
37268;DHT22;23154;52.542;13.362;2023-04-01T00:27:20;9.10;99.90
37268;DHT22;23154;52.542;13.362;2023-04-01T00:29:46;9.20;99.90
37268;DHT22;23154;52.542;13.362;2023-04-01T00:32:13;9.20;99.90
37268;DHT22;23154;52.542;13.362;2023-04-01T00:34:40;9.10;99.90
37268;DHT22;23154;52.542;13.362;2023-04-01T00:37:06;9.10;99.90
37268;DHT22;23154;52.542;13.362;2023-04-01T00:39:33;9.10;99.90
37268;DHT22;23154;52.542;13.362;2023-04-01T00:42:00;9.10;99.90
37268;DHT22;23154;52.542;13.362;2023-04-01T00:44:28;9.10;99.90
37268;DHT22;23154;52.542;13.362;2023-04-01T00:46:55;9.10;99.90
37268;DHT22;23154;52.542;13.362;2023-04-01T00:49:28;9.10;99.90
37268;DHT22;23154;52.542;13.362;2023-04-01T00:51:57;9.10;99.90
37268;DHT22;23154;52.542;13.362;2023-04-01T00:54:25;9.10;99.90
37268;DHT22;23154;52.542;13.362;2023-04-01T00:57:00;9.10;99.90
37268;DHT22;23154;52.542;13.362;2023-04-01T00:59:29;9.10;99.90
37268;DHT22;23154;52.542;13.362;2023-04-01T01:01:56;9.10;99.90
37268;DHT22;23154;52.542;13.362;2023-04-01T01:04:26;9.20;99.90
37268;DHT22;23154;52.542;13.362;2023-04-01T01:12:45;9.20;99.90
37268;DHT22;23154;52.542;13.362;2023-04-01T01:15:21;9.20;99.90
37268;DHT22;23154;52.542;13.362;2023-04-01T01:26:48;9.20;99.90
37268;DHT22;23154;52.542;13.362;2023-04-01T01:32:11;9.20;99.90
37268;DHT22;23154;52.542;13.362;2023-04-01T01:35:34;9.20;99.90
37268;DHT22;23154;52.542;13.362;2023-04-01T01:37:42;9.20;99.90
37268;DHT22;23154;52.542;13.362;2023-04-01T01:40:10;9.20;99.90
37268;DHT22;23154;52.542;13.362;2023-04-01T01:42:44;9.20;99.90
37268;DHT22;23154;52.542;13.362;2023-04-01T01:45:12;9.20;99.90
37268;DHT22;23154;52.542;13.362;2023-04-01T01:47:40;9.20;99.90
37268;DHT22;23154;52.542;13.362;2023-04-01T01:50:07;9.20;99.90
37268;DHT22;23154;52.542;13.362;2023-04-01T01:52:33;9.10;99.90
37268;DHT22;23154;52.542;13.362;2023-04-01T01:54:59;9.20;99.90
37268;DHT22;23154;52.542;13.362;2023-04-01T01:57:36;9.30;99.90
37268;DHT22;23154;52.542;13.362;2023-04-01T02:00:07;9.30;99.90
37268;DHT22;23154;52.542;13.362;2023-04-01T02:02:45;9.20;99.90
37268;DHT22;23154;52.542;13.362;2023-04-01T02:05:16;9.30;99.90
37268;DHT22;23154;52.542;13.362;2023-04-01T02:07:44;9.30;99.90
37268;DHT22;23154;52.542;13.362;2023-04-01T02:10:12;9.30;99.90
37268;DHT22;23154;52.542;13.362;2023-04-01T02:12:39;9.20;99.90
37268;DHT22;23154;52.542;13.362;2023-04-01T02:15:12;9.10;99.90
37268;DHT22;23154;52.542;13.362;2023-04-01T02:17:43;9.10;99.90
37268;DHT22;23154;52.542;13.362;2023-04-01T02:20:16;9.10;99.90
37268;DHT22;23154;52.542;13.362;2023-04-01T02:22:54;9.10;99.90
37268;DHT22;23154;52.542;13.362;2023-04-01T02:25:25;9.10;99.90
37268;DHT22;23154;52.542;13.362;2023-04-01T02:27:53;9.10;99.90
37268;DHT22;23154;52.542;13.362;2023-04-01T02:30:20;9.10;99.90
37268;DHT22;23154;52.542;13.362;2023-04-01T02:32:46;9.00;99.90
37268;DHT22;23154;52.542;13.362;2023-04-01T02:35:15;9.00;99.90
37268;DHT22;23154;52.542;13.362;2023-04-01T02:37:42;9.10;99.90
37268;DHT22;23154;52.542;13.362;2023-04-01T02:40:13;9.10;99.90
37268;DHT22;23154;52.542;13.362;2023-04-01T02:42:39;9.00;99.90
37268;DHT22;23154;52.542;13.362;2023-04-01T02:45:07;9.10;99.90
37268;DHT22;23154;52.542;13.362;2023-04-01T02:47:32;9.10;99.90
37268;DHT22;23154;52.542;13.362;2023-04-01T02:49:58;9.00;99.90
37268;DHT22;23154;52.542;13.362;2023-04-01T02:52:30;9.10;99.90
37268;DHT22;23154;52.542;13.362;2023-04-01T02:54:56;9.00;99.90
37268;DHT22;23154;52.542;13.362;2023-04-01T02:57:22;9.00;99.90
37268;DHT22;23154;52.542;13.362;2023-04-01T02:59:48;9.00;99.90
37268;DHT22;23154;52.542;13.362;2023-04-01T03:02:14;8.90;99.90
37268;DHT22;23154;52.542;13.362;2023-04-01T03:04:39;8.90;99.90
37268;DHT22;23154;52.542;13.362;2023-04-01T03:07:05;8.90;99.90
37268;DHT22;23154;52.542;13.362;2023-04-01T03:09:31;9.00;99.90
37268;DHT22;23154;52.542;13.362;2023-04-01T03:11:57;9.00;99.90
37268;DHT22;23154;52.542;13.362;2023-04-01T03:14:22;9.00;99.90
37268;DHT22;23154;52.542;13.362;2023-04-01T03:16:48;9.00;99.90
37268;DHT22;23154;52.542;13.362;2023-04-01T03:19:14;9.00;99.90
37268;DHT22;23154;52.542;13.362;2023-04-01T03:21:40;9.00;99.90
37268;DHT22;23154;52.542;13.362;2023-04-01T03:24:06;9.00;99.90
37268;DHT22;23154;52.542;13.362;2023-04-01T03:26:32;9.00;99.90
37268;DHT22;23154;52.542;13.362;2023-04-01T03:28:58;9.10;99.90
37268;DHT22;23154;52.542;13.362;2023-04-01T03:31:24;9.10;99.90
37268;DHT22;23154;52.542;13.362;2023-04-01T03:33:50;9.00;99.90
37268;DHT22;23154;52.542;13.362;2023-04-01T03:36:15;9.10;99.90
37268;DHT22;23154;52.542;13.362;2023-04-01T03:38:42;9.10;99.90
37268;DHT22;23154;52.542;13.362;2023-04-01T03:41:12;9.10;99.90
37268;DHT22;23154;52.542;13.362;2023-04-01T03:43:37;9.10;99.90
37268;DHT22;23154;52.542;13.362;2023-04-01T03:46:03;9.10;99.90
37268;DHT22;23154;52.542;13.362;2023-04-01T03:48:29;9.10;99.90
37268;DHT22;23154;52.542;13.362;2023-04-01T03:50:54;9.10;99.90
37268;DHT22;23154;52.542;13.362;2023-04-01T03:53:20;9.10;99.90
37268;DHT22;23154;52.542;13.362;2023-04-01T03:55:46;9.00;99.90
37268;DHT22;23154;52.542;13.362;2023-04-01T03:58:12;9.10;99.90
37268;DHT22;23154;52.542;13.362;2023-04-01T04:00:38;9.10;99.90
37268;DHT22;23154;52.542;13.362;2023-04-01T04:03:03;9.10;99.90
37268;DHT22;23154;52.542;13.362;2023-04-01T04:05:30;9.20;99.90
37268;DHT22;23154;52.542;13.362;2023-04-01T04:07:56;9.10;99.90
37268;DHT22;23154;52.542;13.362;2023-04-01T04:10:22;9.10;99.90
37268;DHT22;23154;52.542;13.362;2023-04-01T04:12:49;9.10;99.90
37268;DHT22;23154;52.542;13.362;2023-04-01T04:15:15;9.20;99.90
37268;DHT22;23154;52.542;13.362;2023-04-01T04:17:41;9.20;99.90
37268;DHT22;23154;52.542;13.362;2023-04-01T04:20:07;9.20;99.90
37268;DHT22;23154;52.542;13.362;2023-04-01T04:22:33;9.20;99.90
37268;DHT22;23154;52.542;13.362;2023-04-01T04:24:59;9.20;99.90
37268;DHT22;23154;52.542;13.362;2023-04-01T04:27:25;9.20;99.90
37268;DHT22;23154;52.542;13.362;2023-04-01T04:29:51;9.20;99.90
37268;DHT22;23154;52.542;13.362;2023-04-01T04:32:16;9.20;99.90
37268;DHT22;23154;52.542;13.362;2023-04-01T04:34:42;9.20;99.90
37268;DHT22;23154;52.542;13.362;2023-04-01T04:37:08;9.20;99.90
37268;DHT22;23154;52.542;13.362;2023-04-01T04:39:33;9.30;99.90
37268;DHT22;23154;52.542;13.362;2023-04-01T04:41:59;9.20;99.90
37268;DHT22;23154;52.542;13.362;2023-04-01T04:44:24;9.20;99.90
37268;DHT22;23154;52.542;13.362;2023-04-01T04:46:50;9.20;99.90
37268;DHT22;23154;52.542;13.362;2023-04-01T04:49:16;9.20;99.90
37268;DHT22;23154;52.542;13.362;2023-04-01T04:51:41;9.20;99.90
37268;DHT22;23154;52.542;13.362;2023-04-01T04:54:07;9.20;99.90
37268;DHT22;23154;52.542;13.362;2023-04-01T04:56:33;9.20;99.90
37268;DHT22;23154;52.542;13.362;2023-04-01T04:58:59;9.30;99.90
37268;DHT22;23154;52.542;13.362;2023-04-01T05:01:25;9.20;99.90
37268;DHT22;23154;52.542;13.362;2023-04-01T05:03:51;9.30;99.90
37268;DHT22;23154;52.542;13.362;2023-04-01T05:06:17;9.20;99.90
37268;DHT22;23154;52.542;13.362;2023-04-01T05:08:44;9.30;99.90
37268;DHT22;23154;52.542;13.362;2023-04-01T05:11:13;9.30;99.90
37268;DHT22;23154;52.542;13.362;2023-04-01T05:13:39;9.30;99.90
37268;DHT22;23154;52.542;13.362;2023-04-01T05:16:11;9.30;99.90
37268;DHT22;23154;52.542;13.362;2023-04-01T05:18:37;9.30;99.90
37268;DHT22;23154;52.542;13.362;2023-04-01T05:21:03;9.30;99.90
37268;DHT22;23154;52.542;13.362;2023-04-01T05:23:31;9.40;99.90
37268;DHT22;23154;52.542;13.362;2023-04-01T05:25:57;9.30;99.90
37268;DHT22;23154;52.542;13.362;2023-04-01T05:28:22;9.40;99.90
37268;DHT22;23154;52.542;13.362;2023-04-01T05:30:48;9.30;99.90
37268;DHT22;23154;52.542;13.362;2023-04-01T05:33:14;9.30;99.90
37268;DHT22;23154;52.542;13.362;2023-04-01T05:35:40;9.40;99.90
37268;DHT22;23154;52.542;13.362;2023-04-01T05:38:06;9.40;99.90
37268;DHT22;23154;52.542;13.362;2023-04-01T05:40:32;9.30;99.90
37268;DHT22;23154;52.542;13.362;2023-04-01T05:42:58;9.40;99.90
37268;DHT22;23154;52.542;13.362;2023-04-01T05:45:24;9.40;99.90
37268;DHT22;23154;52.542;13.362;2023-04-01T05:47:50;9.40;99.90
37268;DHT22;23154;52.542;13.362;2023-04-01T05:50:16;9.50;99.90
37268;DHT22;23154;52.542;13.362;2023-04-01T05:52:41;9.40;99.90
37268;DHT22;23154;52.542;13.362;2023-04-01T05:55:08;9.40;99.90
37268;DHT22;23154;52.542;13.362;2023-04-01T05:57:33;9.40;99.90
37268;DHT22;23154;52.542;13.362;2023-04-01T05:59:59;9.50;99.90
37268;DHT22;23154;52.542;13.362;2023-04-01T06:02:25;9.50;99.90
37268;DHT22;23154;52.542;13.362;2023-04-01T06:05:02;9.50;99.90
37268;DHT22;23154;52.542;13.362;2023-04-01T06:07:29;9.60;99.90
37268;DHT22;23154;52.542;13.362;2023-04-01T06:09:54;9.60;99.90
37268;DHT22;23154;52.542;13.362;2023-04-01T06:12:57;9.60;99.90
37268;DHT22;23154;52.542;13.362;2023-04-01T06:15:51;9.50;99.90
37268;DHT22;23154;52.542;13.362;2023-04-01T06:27:03;9.60;99.90
37268;DHT22;23154;52.542;13.362;2023-04-01T06:34:52;9.60;99.90
37268;DHT22;23154;52.542;13.362;2023-04-01T06:45:15;9.70;99.90
37268;DHT22;23154;52.542;13.362;2023-04-01T06:56:33;9.90;99.90
37268;DHT22;23154;52.542;13.362;2023-04-01T06:59:12;9.90;99.90
37268;DHT22;23154;52.542;13.362;2023-04-01T07:01:59;9.90;99.90
37268;DHT22;23154;52.542;13.362;2023-04-01T07:04:32;9.80;99.90
37268;DHT22;23154;52.542;13.362;2023-04-01T07:07:04;9.80;99.90
37268;DHT22;23154;52.542;13.362;2023-04-01T07:09:55;9.80;99.90
37268;DHT22;23154;52.542;13.362;2023-04-01T07:15:33;10.00;99.90
37268;DHT22;23154;52.542;13.362;2023-04-01T07:18:18;10.10;99.90
37268;DHT22;23154;52.542;13.362;2023-04-01T07:20:44;10.10;99.90
37268;DHT22;23154;52.542;13.362;2023-04-01T07:23:32;10.10;99.90
37268;DHT22;23154;52.542;13.362;2023-04-01T07:26:14;10.20;99.90
37268;DHT22;23154;52.542;13.362;2023-04-01T07:28:41;10.30;99.90
37268;DHT22;23154;52.542;13.362;2023-04-01T07:36:56;10.20;99.90
37268;DHT22;23154;52.542;13.362;2023-04-01T07:50:23;10.70;99.90
37268;DHT22;23154;52.542;13.362;2023-04-01T07:58:51;11.00;99.90
37268;DHT22;23154;52.542;13.362;2023-04-01T08:12:56;11.30;99.90
37268;DHT22;23154;52.542;13.362;2023-04-01T08:15:28;11.30;99.90
37268;DHT22;23154;52.542;13.362;2023-04-01T08:23:16;10.90;99.90
37268;DHT22;23154;52.542;13.362;2023-04-01T08:25:52;10.50;99.90
37268;DHT22;23154;52.542;13.362;2023-04-01T08:28:35;10.30;99.90
37268;DHT22;23154;52.542;13.362;2023-04-01T08:31:51;10.20;99.90
37268;DHT22;23154;52.542;13.362;2023-04-01T08:33:53;10.30;99.90
37268;DHT22;23154;52.542;13.362;2023-04-01T08:36:27;10.30;99.90
37268;DHT22;23154;52.542;13.362;2023-04-01T08:52:58;10.00;99.90
37268;DHT22;23154;52.542;13.362;2023-04-01T08:56:05;10.00;99.90
37268;DHT22;23154;52.542;13.362;2023-04-01T09:13:14;10.40;99.90
37268;DHT22;23154;52.542;13.362;2023-04-01T09:19:04;10.20;99.90
37268;DHT22;23154;52.542;13.362;2023-04-01T09:41:31;10.20;99.90
37268;DHT22;23154;52.542;13.362;2023-04-01T09:44:18;10.10;99.90
37268;DHT22;23154;52.542;13.362;2023-04-01T10:00:35;10.10;99.90
37268;DHT22;23154;52.542;13.362;2023-04-01T10:03:30;9.80;99.90
37268;DHT22;23154;52.542;13.362;2023-04-01T10:06:45;9.80;99.90
37268;DHT22;23154;52.542;13.362;2023-04-01T10:17:30;9.80;99.90
37268;DHT22;23154;52.542;13.362;2023-04-01T10:25:46;9.80;99.90
37268;DHT22;23154;52.542;13.362;2023-04-01T10:36:57;9.50;99.90
37268;DHT22;23154;52.542;13.362;2023-04-01T10:54:28;9.40;99.90
37268;DHT22;23154;52.542;13.362;2023-04-01T11:08:23;9.60;99.90
37268;DHT22;23154;52.542;13.362;2023-04-01T11:33:36;9.60;99.90
37268;DHT22;23154;52.542;13.362;2023-04-01T11:39:18;9.60;99.90
37268;DHT22;23154;52.542;13.362;2023-04-01T11:42:24;9.50;99.90
37268;DHT22;23154;52.542;13.362;2023-04-01T11:45:16;9.40;99.90
37268;DHT22;23154;52.542;13.362;2023-04-01T12:02:33;9.10;99.90
37268;DHT22;23154;52.542;13.362;2023-04-01T12:05:11;9.00;99.90
37268;DHT22;23154;52.542;13.362;2023-04-01T12:18:59;8.80;99.90
37268;DHT22;23154;52.542;13.362;2023-04-01T12:21:35;8.70;99.90
37268;DHT22;23154;52.542;13.362;2023-04-01T12:24:33;8.70;99.90
37268;DHT22;23154;52.542;13.362;2023-04-01T12:35:39;8.90;99.90
37268;DHT22;23154;52.542;13.362;2023-04-01T12:52:05;8.70;99.90
37268;DHT22;23154;52.542;13.362;2023-04-01T13:26:13;8.50;99.90
37268;DHT22;23154;52.542;13.362;2023-04-01T13:39:35;8.20;99.90
37268;DHT22;23154;52.542;13.362;2023-04-01T13:42:28;8.10;99.90
37268;DHT22;23154;52.542;13.362;2023-04-01T14:01:47;8.30;99.90
37268;DHT22;23154;52.542;13.362;2023-04-01T14:07:31;8.20;99.90
37268;DHT22;23154;52.542;13.362;2023-04-01T14:19:03;8.20;99.90
37268;DHT22;23154;52.542;13.362;2023-04-01T14:24:57;8.00;99.90
37268;DHT22;23154;52.542;13.362;2023-04-01T14:30:35;7.90;99.90
37268;DHT22;23154;52.542;13.362;2023-04-01T14:38:58;7.80;99.90
37268;DHT22;23154;52.542;13.362;2023-04-01T14:52:10;7.70;99.90
37268;DHT22;23154;52.542;13.362;2023-04-01T14:54:39;7.70;99.90
37268;DHT22;23154;52.542;13.362;2023-04-01T14:57:10;7.70;99.90
37268;DHT22;23154;52.542;13.362;2023-04-01T14:59:47;7.70;99.90
37268;DHT22;23154;52.542;13.362;2023-04-01T15:08:19;7.60;99.90
37268;DHT22;23154;52.542;13.362;2023-04-01T15:39:12;7.40;99.90
37268;DHT22;23154;52.542;13.362;2023-04-01T15:47:37;7.30;99.90
37268;DHT22;23154;52.542;13.362;2023-04-01T15:50:26;7.30;99.90
37268;DHT22;23154;52.542;13.362;2023-04-01T16:18:14;7.30;99.90
37268;DHT22;23154;52.542;13.362;2023-04-01T16:20:51;7.20;99.90
37268;DHT22;23154;52.542;13.362;2023-04-01T16:23:51;7.20;99.90
37268;DHT22;23154;52.542;13.362;2023-04-01T16:29:03;7.10;99.90
37268;DHT22;23154;52.542;13.362;2023-04-01T16:36:52;6.80;99.90
37268;DHT22;23154;52.542;13.362;2023-04-01T16:41:57;6.80;99.90
37268;DHT22;23154;52.542;13.362;2023-04-01T16:45:00;6.70;99.90
37268;DHT22;23154;52.542;13.362;2023-04-01T16:47:50;6.60;99.90
37268;DHT22;23154;52.542;13.362;2023-04-01T16:50:21;6.50;99.90
37268;DHT22;23154;52.542;13.362;2023-04-01T16:53:18;6.60;99.90
37268;DHT22;23154;52.542;13.362;2023-04-01T16:59:01;6.40;99.90
37268;DHT22;23154;52.542;13.362;2023-04-01T17:04:19;6.20;99.90
37268;DHT22;23154;52.542;13.362;2023-04-01T17:06:55;6.10;99.90
37268;DHT22;23154;52.542;13.362;2023-04-01T17:09:47;6.20;99.90
37268;DHT22;23154;52.542;13.362;2023-04-01T17:12:25;6.10;99.90
37268;DHT22;23154;52.542;13.362;2023-04-01T17:17:45;5.90;99.90
37268;DHT22;23154;52.542;13.362;2023-04-01T17:23:12;5.90;99.90
37268;DHT22;23154;52.542;13.362;2023-04-01T17:28:46;5.80;99.90
37268;DHT22;23154;52.542;13.362;2023-04-01T17:42:09;5.60;99.90
37268;DHT22;23154;52.542;13.362;2023-04-01T17:45:00;5.60;99.90
37268;DHT22;23154;52.542;13.362;2023-04-01T17:52:47;5.40;99.90
37268;DHT22;23154;52.542;13.362;2023-04-01T18:06:21;5.30;99.90
37268;DHT22;23154;52.542;13.362;2023-04-01T18:08:56;5.20;99.90
37268;DHT22;23154;52.542;13.362;2023-04-01T18:17:55;5.10;99.90
37268;DHT22;23154;52.542;13.362;2023-04-01T18:23:43;5.00;99.90
37268;DHT22;23154;52.542;13.362;2023-04-01T18:26:18;5.10;99.90
37268;DHT22;23154;52.542;13.362;2023-04-01T18:29:27;5.00;99.90
37268;DHT22;23154;52.542;13.362;2023-04-01T18:34:57;5.10;99.90
37268;DHT22;23154;52.542;13.362;2023-04-01T18:37:36;5.10;99.90
37268;DHT22;23154;52.542;13.362;2023-04-01T18:40:24;5.00;99.90
37268;DHT22;23154;52.542;13.362;2023-04-01T18:46:12;5.00;99.90
37268;DHT22;23154;52.542;13.362;2023-04-01T18:50:57;4.90;99.90
37268;DHT22;23154;52.542;13.362;2023-04-01T18:53:50;4.80;99.90
37268;DHT22;23154;52.542;13.362;2023-04-01T18:56:29;4.80;99.90
37268;DHT22;23154;52.542;13.362;2023-04-01T19:02:19;4.90;99.90
37268;DHT22;23154;52.542;13.362;2023-04-01T19:07:52;4.90;99.90
37268;DHT22;23154;52.542;13.362;2023-04-01T19:10:45;4.90;99.90
37268;DHT22;23154;52.542;13.362;2023-04-01T19:16:46;4.70;99.90
37268;DHT22;23154;52.542;13.362;2023-04-01T19:21:58;4.70;99.90
37268;DHT22;23154;52.542;13.362;2023-04-01T19:27:42;4.50;99.90
37268;DHT22;23154;52.542;13.362;2023-04-01T19:36:17;4.50;99.90
37268;DHT22;23154;52.542;13.362;2023-04-01T19:38:41;4.50;99.90
37268;DHT22;23154;52.542;13.362;2023-04-01T19:41:40;4.50;99.90
37268;DHT22;23154;52.542;13.362;2023-04-01T19:47:11;4.50;99.90
37268;DHT22;23154;52.542;13.362;2023-04-01T19:57:47;4.40;99.90
37268;DHT22;23154;52.542;13.362;2023-04-01T20:08:18;4.40;99.90
37268;DHT22;23154;52.542;13.362;2023-04-01T20:19:40;4.30;99.90
37268;DHT22;23154;52.542;13.362;2023-04-01T20:22:27;4.20;99.90
37268;DHT22;23154;52.542;13.362;2023-04-01T20:24:58;4.30;99.90
37268;DHT22;23154;52.542;13.362;2023-04-01T20:27:33;4.20;99.90
37268;DHT22;23154;52.542;13.362;2023-04-01T20:35:37;4.10;99.90
37268;DHT22;23154;52.542;13.362;2023-04-01T20:41:39;4.10;99.90
37268;DHT22;23154;52.542;13.362;2023-04-01T20:46:56;4.10;99.90
37268;DHT22;23154;52.542;13.362;2023-04-01T20:49:39;4.10;99.90
37268;DHT22;23154;52.542;13.362;2023-04-01T21:05:59;3.90;99.90
37268;DHT22;23154;52.542;13.362;2023-04-01T21:13:56;3.90;99.90
37268;DHT22;23154;52.542;13.362;2023-04-01T21:30:55;3.80;99.90
37268;DHT22;23154;52.542;13.362;2023-04-01T21:36:03;3.80;99.90
37268;DHT22;23154;52.542;13.362;2023-04-01T21:44:20;3.70;99.90
37268;DHT22;23154;52.542;13.362;2023-04-01T21:47:30;3.70;99.90
37268;DHT22;23154;52.542;13.362;2023-04-01T22:06:37;3.70;99.90
37268;DHT22;23154;52.542;13.362;2023-04-01T22:09:24;3.70;99.90
37268;DHT22;23154;52.542;13.362;2023-04-01T22:18:05;3.60;99.90
37268;DHT22;23154;52.542;13.362;2023-04-01T22:20:42;3.60;99.90
37268;DHT22;23154;52.542;13.362;2023-04-01T22:23:26;3.60;99.90
37268;DHT22;23154;52.542;13.362;2023-04-01T22:26:06;3.70;99.90
37268;DHT22;23154;52.542;13.362;2023-04-01T22:29:07;3.70;99.90
37268;DHT22;23154;52.542;13.362;2023-04-01T22:31:49;3.60;99.90
37268;DHT22;23154;52.542;13.362;2023-04-01T22:34:38;3.70;99.90
37268;DHT22;23154;52.542;13.362;2023-04-01T22:47:55;3.60;99.90
37268;DHT22;23154;52.542;13.362;2023-04-01T22:50:49;3.60;99.90
37268;DHT22;23154;52.542;13.362;2023-04-01T22:56:14;3.70;99.90
37268;DHT22;23154;52.542;13.362;2023-04-01T23:01:32;3.70;99.90
37268;DHT22;23154;52.542;13.362;2023-04-01T23:04:03;3.70;99.90
37268;DHT22;23154;52.542;13.362;2023-04-01T23:06:35;3.70;99.90
37268;DHT22;23154;52.542;13.362;2023-04-01T23:09:38;3.70;99.90
37268;DHT22;23154;52.542;13.362;2023-04-01T23:12:12;3.70;99.90
37268;DHT22;23154;52.542;13.362;2023-04-01T23:17:16;3.60;99.90
37268;DHT22;23154;52.542;13.362;2023-04-01T23:20:07;3.60;99.90
37268;DHT22;23154;52.542;13.362;2023-04-01T23:25:48;3.60;99.90
37268;DHT22;23154;52.542;13.362;2023-04-01T23:35:56;3.60;99.90
37268;DHT22;23154;52.542;13.362;2023-04-01T23:38:32;3.50;99.90
37268;DHT22;23154;52.542;13.362;2023-04-01T23:40:59;3.50;99.90
37268;DHT22;23154;52.542;13.362;2023-04-01T23:43:30;3.60;99.90
37268;DHT22;23154;52.542;13.362;2023-04-01T23:45:56;3.50;99.90
37268;DHT22;23154;52.542;13.362;2023-04-01T23:48:31;3.50;99.90
37268;DHT22;23154;52.542;13.362;2023-04-01T23:50:58;3.50;99.90
37268;DHT22;23154;52.542;13.362;2023-04-01T23:53:27;3.50;99.90
37268;DHT22;23154;52.542;13.362;2023-04-01T23:55:55;3.40;99.90
37268;DHT22;23154;52.542;13.362;2023-04-01T23:58:26;3.40;99.90
